Time;durP1;ratioP1;P1;durP2;ratioP2;P2;SDS_P1;SDS_P2;PMS_P1;PMS_P2;Temp;Humidity;BMP_temperature;BMP_pressure;BME280_temperature;BME280_humidity;BME280_pressure;Samples;Min_cycle;Max_cycle;Signal;HPM_P1;HPM_P2
2022/10/05 03:42:09;;;;;;;;;;;;;;;4.45;100.00;100038.50;4925844;29;19938;-81
2022/10/05 03:44:34;;;;;;;;;;;;;;;4.53;100.00;100041.88;4918534;29;19923;-81
2022/10/05 03:47:24;;;;;;;;;;;;;;;4.52;100.00;100037.50;4918237;29;19922;-86
2022/10/05 03:50:04;;;;;;;;;;;;;;;4.51;100.00;100032.28;4918389;29;19926;-82
2022/10/05 03:52:30;;;;;;;;;;;;;;;4.51;100.00;100034.91;4917725;29;20425;-81
2022/10/05 03:54:58;;;;;;;;;;;;;;;4.47;100.00;100033.22;4916948;29;19923;-84
2022/10/05 03:57:30;;;;;;;;;;;;;;;4.56;100.00;100027.81;4914788;29;19926;-84
2022/10/05 04:00:05;;;;;;;;;;;;;;;4.52;100.00;100032.25;4929574;29;19922;-85
2022/10/05 04:02:36;;;;;;;;;;;;;;;4.53;100.00;100031.38;4918291;29;20370;-86
2022/10/05 04:05:04;;;;;;;;;;;;;;;4.56;100.00;100030.44;4935270;29;20009;-82
2022/10/05 04:07:36;;;;;;;;;;;;;;;4.66;100.00;100039.03;4935318;29;20009;-88
2022/10/05 04:10:04;;;;;;;;;;;;;;;4.58;100.00;100025.16;4916993;29;19923;-89
2022/10/05 04:12:36;;;;;;;;;;;;;;;4.55;100.00;100029.59;4918374;29;20326;-88
2022/10/05 04:15:07;;;;;;;;;;;;;;;4.61;100.00;100028.66;4917946;29;20382;-85
2022/10/05 04:17:41;;;;;;;;;;;;;;;4.66;100.00;100029.44;4918175;29;20297;-88
2022/10/05 04:20:14;;;;;;;;;;;;;;;4.57;100.00;100029.56;4935010;29;19923;-84
2022/10/05 04:22:42;;;;;;;;;;;;;;;4.60;100.00;100016.41;4934770;29;19919;-82
2022/10/05 04:25:15;;;;;;;;;;;;;;;4.60;100.00;100018.16;4916457;29;19923;-84
2022/10/05 04:27:44;;;;;;;;;;;;;;;4.52;100.00;100016.50;4917912;29;19919;-85
2022/10/05 04:30:19;;;;;;;;;;;;;;;4.62;100.00;100022.47;4934905;29;19922;-83
2022/10/05 04:32:51;;;;;;;;;;;;;;;4.68;100.00;100024.16;4935260;29;19923;-89
2022/10/05 04:35:35;;;;;;;;;;;;;;;4.67;100.00;100015.41;4935017;29;20014;-89
2022/10/05 04:38:03;;;;;;;;;;;;;;;4.63;100.00;100018.97;4918129;29;19966;-85
2022/10/05 04:40:47;;;;;;;;;;;;;;;4.78;100.00;100017.00;4933678;29;19965;-88
2022/10/05 04:43:13;;;;;;;;;;;;;;;4.75;100.00;100019.69;4917129;29;19919;-88
2022/10/05 04:45:54;;;;;;;;;;;;;;;4.76;100.00;100017.03;4935092;29;19930;-94
2022/10/05 04:48:29;;;;;;;;;;;;;;;4.86;100.00;100015.13;4934811;29;19923;-90
2022/10/05 07:37:58;;;;;;;;;;;;;;;5.41;100.00;100071.16;5136950;23;20237;-79
2022/10/05 07:40:31;;;;;;;;;;;;;;;5.35;100.00;100071.25;5003201;28;19921;-82
2022/10/05 07:43:09;;;;;;;;;;;;;;;5.44;100.00;100071.06;5002338;28;20001;-83
2022/10/05 07:45:46;;;;;;;;;;;;;;;5.43;100.00;100061.47;5003274;28;19917;-82
2022/10/05 07:48:19;;;;;;;;;;;;;;;6.88;100.00;100061.22;4985454;28;19965;-89
2022/10/05 07:51:03;;;;;;;;;;;;;;;5.87;100.00;100066.81;5001709;28;19924;-88
2022/10/05 07:53:31;;;;;;;;;;;;;;;5.50;100.00;100070.97;4985391;28;19949;-88
2022/10/05 07:56:03;;;;;;;;;;;;;;;5.45;100.00;100064.94;4985840;28;19974;-90
2022/10/05 07:58:40;;;;;;;;;;;;;;;5.43;100.00;100069.38;5002137;28;19946;-88
2022/10/05 08:01:07;;;;;;;;;;;;;;;5.52;100.00;100074.47;5001811;28;19953;-85
2022/10/05 08:03:32;;;;;;;;;;;;;;;5.50;100.00;100068.34;4993779;28;20269;-87
2022/10/05 08:05:59;;;;;;;;;;;;;;;5.55;100.00;100071.78;4992015;28;19920;-86
2022/10/05 08:08:29;;;;;;;;;;;;;;;5.60;100.00;100076.94;4985470;28;20324;-86
2022/10/05 08:10:57;;;;;;;;;;;;;;;5.60;100.00;100071.69;4985431;28;19918;-85
2022/10/05 08:13:51;;;;;;;;;;;;;;;5.60;100.00;100069.03;4985328;28;19924;-88
2022/10/05 08:16:17;;;;;;;;;;;;;;;5.64;100.00;100074.22;4952640;28;19918;-84
2022/10/05 08:19:05;;;;;;;;;;;;;;;7.41;100.00;100066.94;4985229;28;20012;-91
2022/10/05 08:21:54;;;;;;;;;;;;;;;12.93;100.00;100047.75;4984347;28;19921;-85
2022/10/05 08:24:39;;;;;;;;;;;;;;;13.15;100.00;100045.75;4974263;28;19917;-80
2022/10/05 08:27:23;;;;;;;;;;;;;;;14.90;100.00;100040.13;5002595;28;19972;-81
2022/10/05 08:30:03;;;;;;;;;;;;;;;10.12;100.00;100056.88;4978107;28;19956;-81
2022/10/05 08:32:34;;;;;;;;;;;;;;;8.52;100.00;100063.03;5000386;28;19921;-81
2022/10/05 08:34:59;;;;;;;;;;;;;;;7.97;100.00;100055.78;4993513;28;19917;-83
2022/10/05 08:37:27;;;;;;;;;;;;;;;7.82;100.00;100048.31;4992173;28;19932;-83
2022/10/05 08:40:13;;;;;;;;;;;;;;;7.73;100.00;100052.03;4984531;28;19926;-85
2022/10/05 08:42:38;;;;;;;;;;;;;;;7.51;100.00;100056.16;5002660;28;19924;-86
2022/10/05 08:45:13;;;;;;;;;;;;;;;7.52;100.00;100057.91;4992905;28;19922;-85
2022/10/05 08:47:57;;;;;;;;;;;;;;;7.40;100.00;100057.31;4985681;28;19961;-83
2022/10/05 08:50:49;;;;;;;;;;;;;;;7.50;100.00;100057.06;4983608;28;19918;-81
2022/10/05 08:53:18;;;;;;;;;;;;;;;7.51;100.00;100058.78;4980651;28;20485;-80
2022/10/05 08:55:52;;;;;;;;;;;;;;;7.42;100.00;100059.91;4983958;28;20036;-81
2022/10/05 08:58:36;;;;;;;;;;;;;;;7.37;100.00;100060.03;4984766;28;19928;-83
2022/10/05 09:01:25;;;;;;;;;;;;;;;7.45;100.00;100060.69;5000375;28;19922;-85
2022/10/05 09:03:53;;;;;;;;;;;;;;;7.37;100.00;100054.75;4973110;28;19929;-86
2022/10/05 09:06:34;;;;;;;;;;;;;;;7.37;100.00;100052.13;4983811;28;19921;-83
2022/10/05 09:09:19;;;;;;;;;;;;;;;7.40;100.00;100046.78;4984656;28;19918;-82
2022/10/05 09:11:54;;;;;;;;;;;;;;;7.36;100.00;100047.75;4976575;28;19921;-81
2022/10/05 09:14:25;;;;;;;;;;;;;;;7.39;100.00;100050.31;4992862;28;20281;-81
2022/10/05 09:17:03;;;;;;;;;;;;;;;7.37;100.00;100045.97;5000660;28;19921;-85
2022/10/05 09:19:28;;;;;;;;;;;;;;;7.23;100.00;100049.81;5001903;28;19918;-84
2022/10/05 09:22:12;;;;;;;;;;;;;;;7.33;100.00;100045.19;4983077;28;19924;-83
2022/10/05 09:24:46;;;;;;;;;;;;;;;7.27;100.00;100053.25;4980394;28;19928;-83
2022/10/05 09:27:14;;;;;;;;;;;;;;;7.26;100.00;100048.91;4984401;28;20368;-85
2022/10/05 09:29:48;;;;;;;;;;;;;;;7.28;100.00;100044.44;4984898;28;20380;-83
2022/10/05 09:32:32;;;;;;;;;;;;;;;7.34;100.00;100041.66;4984383;28;20357;-82
2022/10/05 09:35:16;;;;;;;;;;;;;;;7.22;100.00;100049.84;4984154;28;20408;-82
2022/10/05 09:37:52;;;;;;;;;;;;;;;7.36;100.00;100042.47;4976569;28;19921;-83
2022/10/05 09:40:36;;;;;;;;;;;;;;;7.32;100.00;100038.16;4999927;28;19971;-83
2022/10/05 09:43:04;;;;;;;;;;;;;;;7.40;100.00;100035.34;5001802;28;19939;-82
2022/10/05 09:45:30;;;;;;;;;;;;;;;7.42;100.00;100036.19;4995368;28;19917;-86
2022/10/05 09:48:27;;;;;;;;;;;;;;;7.36;100.00;100036.34;4988523;28;19914;-85
2022/10/05 09:50:52;;;;;;;;;;;;;;;7.34;100.00;100035.50;4938776;28;20008;-85
2022/10/05 09:53:39;;;;;;;;;;;;;;;7.30;100.00;100028.59;4996220;28;20016;-83
2022/10/05 09:56:14;;;;;;;;;;;;;;;9.87;100.00;100031.28;5004941;28;19924;-83
2022/10/05 09:59:06;;;;;;;;;;;;;;;8.00;100.00;100029.31;4987327;28;20373;-82
2022/10/05 10:02:00;;;;;;;;;;;;;;;7.58;100.00;100032.22;4987285;28;19965;-88
2022/10/05 10:04:38;;;;;;;;;;;;;;;7.42;100.00;100031.78;4978210;28;19917;-84
2022/10/05 10:07:09;;;;;;;;;;;;;;;7.26;100.00;100033.06;4986246;28;20011;-83
2022/10/05 10:09:53;;;;;;;;;;;;;;;7.31;100.00;100036.47;5003899;28;19964;-82
2022/10/05 10:12:27;;;;;;;;;;;;;;;7.29;100.00;100035.59;4987043;28;20403;-83
2022/10/05 10:14:55;;;;;;;;;;;;;;;7.27;100.00;100040.06;4980715;28;19925;-83
2022/10/05 10:17:40;;;;;;;;;;;;;;;7.23;100.00;100025.25;4995878;28;20060;-82
2022/10/05 10:20:21;;;;;;;;;;;;;;;7.32;100.00;100025.00;4987152;28;20371;-83
2022/10/05 10:22:53;;;;;;;;;;;;;;;7.31;100.00;100023.28;4991254;28;19914;-83
2022/10/05 10:25:37;;;;;;;;;;;;;;;7.30;100.00;100021.53;4986041;28;19925;-83
2022/10/05 10:28:13;;;;;;;;;;;;;;;9.09;100.00;100026.91;4986896;28;19918;-81
2022/10/05 10:30:41;;;;;;;;;;;;;;;10.54;100.00;100006.72;4986054;28;19949;-83
2022/10/05 10:33:16;;;;;;;;;;;;;;;8.39;100.00;100014.97;4987173;28;19917;-84
2022/10/05 10:35:57;;;;;;;;;;;;;;;7.86;100.00;100020.06;5002316;28;20008;-84
2022/10/05 10:38:27;;;;;;;;;;;;;;;7.59;100.00;100017.25;4975613;28;19925;-84
2022/10/05 10:40:55;;;;;;;;;;;;;;;7.53;100.00;100020.06;4967440;28;19922;-83
2022/10/05 10:43:27;;;;;;;;;;;;;;;7.50;100.00;100013.13;4967209;28;19922;-88
2022/10/05 10:45:58;;;;;;;;;;;;;;;7.38;100.00;100009.00;4967268;28;20004;-85
2022/10/05 10:48:29;;;;;;;;;;;;;;;7.42;100.00;100008.03;4975549;28;20017;-84
2022/10/05 10:51:05;;;;;;;;;;;;;;;7.38;100.00;99998.47;4965811;28;19950;-84
2022/10/05 10:53:40;;;;;;;;;;;;;;;7.35;100.00;99995.06;4984618;28;20305;-85
2022/10/05 10:56:25;;;;;;;;;;;;;;;7.43;100.00;99996.56;4982274;28;20370;-84
2022/10/05 10:58:53;;;;;;;;;;;;;;;7.47;100.00;99997.38;4974747;28;19922;-84
2022/10/05 11:01:22;;;;;;;;;;;;;;;7.41;100.00;99995.75;4967170;28;19918;-84
2022/10/05 11:04:02;;;;;;;;;;;;;;;7.42;100.00;99991.38;4975318;28;19925;-86
2022/10/05 11:06:47;;;;;;;;;;;;;;;7.48;100.00;99982.41;4980970;28;19914;-84
2022/10/05 11:09:15;;;;;;;;;;;;;;;7.42;100.00;99979.03;4975277;28;19918;-86
2022/10/05 11:11:40;;;;;;;;;;;;;;;7.42;100.00;99983.47;4974874;28;19922;-87
2022/10/05 11:14:27;;;;;;;;;;;;;;;7.33;100.00;99976.66;4974714;28;19941;-86
2022/10/05 11:17:14;;;;;;;;;;;;;;;7.48;100.00;99978.00;4966527;28;20068;-84
2022/10/05 11:19:39;;;;;;;;;;;;;;;7.35;100.00;99977.47;4981541;28;19925;-84
2022/10/05 11:22:04;;;;;;;;;;;;;;;7.43;100.00;99972.84;4973690;28;19922;-84
2022/10/05 11:24:47;;;;;;;;;;;;;;;7.43;100.00;99975.47;4984196;28;19925;-84
2022/10/05 11:27:21;;;;;;;;;;;;;;;7.58;100.00;99966.31;4966503;28;19945;-85
2022/10/05 11:29:52;;;;;;;;;;;;;;;7.52;100.00;99962.97;4982288;28;19917;-85
2022/10/05 11:32:36;;;;;;;;;;;;;;;7.54;100.00;99962.00;4966451;28;20505;-84
2022/10/05 11:35:02;;;;;;;;;;;;;;;7.58;100.00;99960.19;4974626;28;20013;-85
2022/10/05 11:37:28;;;;;;;;;;;;;;;7.56;100.00;99964.59;4985722;28;20024;-84
2022/10/05 11:40:12;;;;;;;;;;;;;;;7.54;100.00;99961.16;4986142;28;19918;-90
2022/10/05 11:42:40;;;;;;;;;;;;;;;7.49;100.00;99958.63;4993983;28;20382;-84
2022/10/05 11:45:22;;;;;;;;;;;;;;;7.59;100.00;99957.47;5001025;28;20421;-84
2022/10/05 11:47:58;;;;;;;;;;;;;;;7.85;100.00;99949.72;4995768;28;19926;-84
2022/10/05 11:50:31;;;;;;;;;;;;;;;7.75;100.00;99951.75;4983841;28;20017;-88
2022/10/05 11:53:00;;;;;;;;;;;;;;;7.67;100.00;99951.13;4984594;28;19929;-84
2022/10/05 11:55:32;;;;;;;;;;;;;;;7.63;100.00;99940.66;4985912;28;20341;-84
2022/10/05 11:58:00;;;;;;;;;;;;;;;7.72;100.00;99933.38;4984725;28;19921;-84
2022/10/05 12:00:26;;;;;;;;;;;;;;;7.65;100.00;99932.72;4985616;28;19917;-84
2022/10/05 12:03:10;;;;;;;;;;;;;;;7.75;100.00;99928.03;4993666;28;19917;-84
2022/10/05 12:05:54;;;;;;;;;;;;;;;7.63;100.00;99929.25;5001387;28;20130;-88
2022/10/05 12:08:39;;;;;;;;;;;;;;;7.66;100.00;99917.72;4984933;28;19918;-85
2022/10/05 12:11:04;;;;;;;;;;;;;;;7.73;100.00;99919.31;4985535;28;19918;-84
2022/10/05 12:13:45;;;;;;;;;;;;;;;7.70;100.00;99911.47;4993372;28;19921;-84
2022/10/05 12:16:30;;;;;;;;;;;;;;;7.66;100.00;99910.72;4993180;28;20059;-85
2022/10/05 12:19:08;;;;;;;;;;;;;;;7.72;100.00;99904.38;4995793;28;19956;-83
2022/10/05 12:21:53;;;;;;;;;;;;;;;7.78;100.00;99902.41;4983332;28;20364;-85
2022/10/05 12:24:25;;;;;;;;;;;;;;;7.61;100.00;99889.75;4980960;28;20004;-84
2022/10/05 12:27:05;;;;;;;;;;;;;;;7.85;100.00;99894.31;4972448;28;19930;-84
2022/10/05 12:29:40;;;;;;;;;;;;;;;7.68;100.00;99893.06;4983698;28;19929;-84
2022/10/05 12:32:12;;;;;;;;;;;;;;;7.62;100.00;99890.59;4999134;28;19973;-85
2022/10/05 12:34:37;;;;;;;;;;;;;;;7.76;100.00;99883.13;4982202;28;20381;-84
2022/10/05 12:37:27;;;;;;;;;;;;;;;7.63;100.00;99882.63;4999546;28;19928;-84
2022/10/05 12:40:00;;;;;;;;;;;;;;;7.83;100.00;99878.53;4983827;28;19922;-84
2022/10/05 12:42:35;;;;;;;;;;;;;;;7.90;100.00;99871.34;4973741;28;19917;-87
2022/10/05 12:45:00;;;;;;;;;;;;;;;7.93;100.00;99872.09;4980341;28;19922;-86
2022/10/05 12:47:40;;;;;;;;;;;;;;;7.78;100.00;99870.75;4983206;28;19922;-85
2022/10/05 12:50:33;;;;;;;;;;;;;;;7.86;100.00;99869.69;4983346;28;19923;-86
2022/10/05 12:53:17;;;;;;;;;;;;;;;7.80;100.00;99866.31;4984591;28;20009;-84
2022/10/05 12:56:15;;;;;;;;;;;;;;;7.82;100.00;99866.28;4982762;28;20485;-83
2022/10/05 12:58:58;;;;;;;;;;;;;;;7.79;100.00;99867.22;4950487;28;19917;-85
2022/10/05 13:01:37;;;;;;;;;;;;;;;7.78;100.00;99865.50;4982379;28;19918;-84
2022/10/05 13:04:08;;;;;;;;;;;;;;;7.82;100.00;99861.84;4974456;28;19974;-85
2022/10/05 13:06:34;;;;;;;;;;;;;;;7.85;100.00;99858.28;4980980;28;19950;-85
2022/10/05 13:09:09;;;;;;;;;;;;;;;7.95;100.00;99856.22;4982997;28;19918;-83
2022/10/05 13:11:47;;;;;;;;;;;;;;;8.01;100.00;99856.03;4986764;28;19926;-86
2022/10/05 13:14:36;;;;;;;;;;;;;;;7.91;100.00;99859.84;4965259;28;19933;-85
2022/10/05 13:17:11;;;;;;;;;;;;;;;7.89;100.00;99853.75;4973159;28;19925;-84
2022/10/05 13:19:43;;;;;;;;;;;;;;;8.02;100.00;99856.88;4967302;28;19926;-84
2022/10/05 13:22:25;;;;;;;;;;;;;;;8.05;100.00;99848.88;4984649;28;19981;-84
2022/10/05 13:25:03;;;;;;;;;;;;;;;7.93;100.00;99845.72;4970015;28;19926;-88
2022/10/05 13:27:30;;;;;;;;;;;;;;;7.95;100.00;99850.94;4984337;28;19926;-84
2022/10/05 13:30:02;;;;;;;;;;;;;;;7.98;100.00;99840.28;4986045;28;19918;-83
2022/10/05 13:32:27;;;;;;;;;;;;;;;7.76;100.00;99838.31;4986695;28;19926;-84
2022/10/05 13:35:15;;;;;;;;;;;;;;;7.96;100.00;99836.81;4972075;28;19965;-83
2022/10/05 13:37:46;;;;;;;;;;;;;;;7.93;100.00;99837.78;4974537;28;20278;-86
2022/10/05 13:40:24;;;;;;;;;;;;;;;8.00;100.00;99834.03;4975456;28;19922;-83
2022/10/05 13:42:51;;;;;;;;;;;;;;;8.02;100.00;99831.34;4968702;28;19926;-83
2022/10/05 13:45:22;;;;;;;;;;;;;;;8.08;100.00;99835.59;4985965;28;20369;-83
2022/10/05 13:47:56;;;;;;;;;;;;;;;8.06;100.00;99840.91;4974154;28;19922;-84
2022/10/05 13:50:29;;;;;;;;;;;;;;;8.19;100.00;99833.47;4967384;28;19930;-86
2022/10/05 13:53:00;;;;;;;;;;;;;;;8.00;100.00;99828.75;4970431;28;19933;-86
2022/10/05 13:55:44;;;;;;;;;;;;;;;8.06;100.00;99829.47;4986551;28;20463;-84
2022/10/05 13:58:19;;;;;;;;;;;;;;;8.03;100.00;99833.09;4967884;28;19929;-83
2022/10/05 14:00:49;;;;;;;;;;;;;;;8.16;100.00;99828.28;4987586;28;19922;-83
2022/10/05 14:03:26;;;;;;;;;;;;;;;8.09;100.00;99817.06;4977149;28;20278;-84
2022/10/05 14:05:52;;;;;;;;;;;;;;;8.11;100.00;99817.00;4974918;28;19933;-84
2022/10/05 14:08:18;;;;;;;;;;;;;;;8.09;100.00;99814.41;4974927;28;20020;-83
2022/10/05 14:10:45;;;;;;;;;;;;;;;8.12;100.00;99814.31;4988475;28;19961;-85
2022/10/05 14:13:16;;;;;;;;;;;;;;;8.00;100.00;99807.66;4976068;28;20852;-83
2022/10/05 14:15:54;;;;;;;;;;;;;;;8.00;100.00;99807.66;4968173;28;19930;-84
2022/10/05 14:18:23;;;;;;;;;;;;;;;8.12;100.00;99809.03;4975902;28;19922;-84
2022/10/05 14:21:07;;;;;;;;;;;;;;;8.11;100.00;99803.81;4968804;28;20012;-83
2022/10/05 14:23:33;;;;;;;;;;;;;;;8.09;100.00;99803.88;4982595;28;20363;-84
2022/10/05 14:25:59;;;;;;;;;;;;;;;8.17;100.00;99806.25;4976093;28;19918;-84
2022/10/05 14:28:29;;;;;;;;;;;;;;;8.16;100.00;99805.38;4985498;28;19918;-83
2022/10/05 14:30:58;;;;;;;;;;;;;;;8.16;100.00;99805.38;4974951;28;19936;-83
2022/10/05 14:33:25;;;;;;;;;;;;;;;8.18;100.00;99806.22;4982551;28;19961;-87
2022/10/05 14:35:52;;;;;;;;;;;;;;;8.13;100.00;99805.47;4974215;28;20119;-87
2022/10/05 14:38:25;;;;;;;;;;;;;;;8.25;100.00;99801.59;4983598;28;19922;-82
2022/10/05 14:41:09;;;;;;;;;;;;;;;8.17;100.00;99804.47;4985490;28;19922;-83
2022/10/05 14:43:35;;;;;;;;;;;;;;;8.20;100.00;99795.59;4975420;28;20085;-82
2022/10/05 14:46:13;;;;;;;;;;;;;;;8.12;100.00;99801.13;4975347;28;19985;-82
2022/10/05 14:48:42;;;;;;;;;;;;;;;8.14;100.00;99807.22;4974164;28;19988;-83
2022/10/05 14:51:09;;;;;;;;;;;;;;;8.19;100.00;99807.91;4978686;28;19925;-85
2022/10/05 14:53:42;;;;;;;;;;;;;;;8.23;100.00;99802.53;4984042;28;19961;-87
2022/10/05 14:56:20;;;;;;;;;;;;;;;8.15;100.00;99811.59;4983461;28;20014;-82
2022/10/05 14:58:49;;;;;;;;;;;;;;;8.14;100.00;99812.50;4967885;28;19918;-86
2022/10/05 15:01:22;;;;;;;;;;;;;;;8.22;100.00;99811.34;4975119;28;19926;-84
2022/10/05 15:03:52;;;;;;;;;;;;;;;8.25;100.00;99811.25;4975618;28;19929;-83
2022/10/05 15:06:21;;;;;;;;;;;;;;;8.24;100.00;99807.78;4974645;28;19969;-84
2022/10/05 15:08:49;;;;;;;;;;;;;;;8.29;100.00;99807.63;4982331;28;19968;-83
2022/10/05 15:11:22;;;;;;;;;;;;;;;8.25;100.00;99811.25;4974692;28;19929;-89
2022/10/05 15:13:48;;;;;;;;;;;;;;;8.22;100.00;99814.88;4985153;28;19922;-88
2022/10/05 15:16:23;;;;;;;;;;;;;;;8.20;100.00;99814.09;4974008;28;19922;-88
2022/10/05 15:19:11;;;;;;;;;;;;;;;8.15;100.00;99813.34;4968906;28;19922;-88
2022/10/05 15:21:38;;;;;;;;;;;;;;;8.32;100.00;99816.28;4966999;28;19926;-84
2022/10/05 15:24:12;;;;;;;;;;;;;;;8.44;100.00;99816.81;4974372;28;19928;-86
2022/10/05 15:26:37;;;;;;;;;;;;;;;8.29;100.00;99813.75;4975121;28;19918;-87
2022/10/05 15:29:18;;;;;;;;;;;;;;;8.33;100.00;99815.38;4975224;28;19965;-85
2022/10/05 15:31:43;;;;;;;;;;;;;;;8.34;100.00;99816.25;4985437;28;19960;-83
2022/10/05 15:34:16;;;;;;;;;;;;;;;8.31;100.00;99813.69;4979934;28;19975;-88
2022/10/05 15:36:46;;;;;;;;;;;;;;;8.32;100.00;99815.44;4978871;28;20373;-83
2022/10/05 15:39:22;;;;;;;;;;;;;;;8.32;100.00;99820.72;4976122;28;19922;-83
2022/10/05 15:41:57;;;;;;;;;;;;;;;8.35;100.00;99817.97;4983975;28;19926;-83
2022/10/05 15:44:24;;;;;;;;;;;;;;;8.36;100.00;99817.06;4982997;28;20008;-85
2022/10/05 15:46:57;;;;;;;;;;;;;;;8.29;100.00;99810.25;4992910;28;19940;-87
2022/10/05 15:49:41;;;;;;;;;;;;;;;8.32;100.00;99818.09;4986108;28;19913;-85
2022/10/05 15:52:25;;;;;;;;;;;;;;;8.23;100.00;99818.38;4990140;28;19918;-85
2022/10/05 15:55:08;;;;;;;;;;;;;;;8.39;100.00;99819.59;4989947;28;20266;-86
2022/10/05 15:57:36;;;;;;;;;;;;;;;8.34;100.00;99825.06;4978826;28;19922;-84
2022/10/05 16:00:12;;;;;;;;;;;;;;;8.15;100.00;99815.97;4973812;28;19945;-83
2022/10/05 16:02:47;;;;;;;;;;;;;;;8.36;100.00;99822.34;4980991;28;20292;-82
2022/10/05 16:05:12;;;;;;;;;;;;;;;8.35;100.00;99828.53;4989650;28;19974;-83
2022/10/05 16:10:32;;;;;;;;;;;;;;;8.36;100.00;99822.34;4985417;28;20285;-83
2022/10/05 16:12:58;;;;;;;;;;;;;;;8.32;100.00;99823.34;4991884;28;19917;-87
2022/10/05 16:15:32;;;;;;;;;;;;;;;8.39;100.00;99827.50;4991826;28;20318;-85
2022/10/05 16:18:17;;;;;;;;;;;;;;;8.36;100.00;99830.28;4993284;28;20393;-86
2022/10/05 16:20:52;;;;;;;;;;;;;;;8.39;100.00;99831.94;4980843;28;20316;-87
2022/10/05 16:23:23;;;;;;;;;;;;;;;8.38;100.00;99833.72;4982966;28;19918;-89
2022/10/05 16:26:07;;;;;;;;;;;;;;;8.41;100.00;99836.25;4993040;28;20301;-83
2022/10/05 16:28:46;;;;;;;;;;;;;;;8.28;100.00;99837.56;4982458;28;19996;-89
2022/10/05 16:31:17;;;;;;;;;;;;;;;8.46;100.00;99842.28;4984073;28;19973;-84
2022/10/05 16:33:53;;;;;;;;;;;;;;;8.39;100.00;99848.63;4991533;28;20436;-83
2022/10/05 16:36:30;;;;;;;;;;;;;;;8.35;100.00;99854.94;4989581;28;19922;-86
2022/10/05 16:39:07;;;;;;;;;;;;;;;8.50;100.00;99854.47;4997880;28;20001;-87
2022/10/05 16:41:33;;;;;;;;;;;;;;;8.45;100.00;99850.25;4976984;28;20491;-87
2022/10/05 16:44:02;;;;;;;;;;;;;;;8.42;100.00;99855.59;4993245;28;19922;-85
2022/10/05 16:46:27;;;;;;;;;;;;;;;8.44;100.00;99848.50;4993302;28;20017;-88
2022/10/05 16:48:58;;;;;;;;;;;;;;;8.43;100.00;99852.94;4992963;28;20056;-84
2022/10/05 16:51:40;;;;;;;;;;;;;;;8.42;100.00;99858.25;4999529;28;20399;-86
2022/10/05 16:54:14;;;;;;;;;;;;;;;8.32;100.00;99865.59;4985201;28;19969;-85
2022/10/05 16:56:51;;;;;;;;;;;;;;;9.78;100.00;99870.19;4984631;28;19921;-83
2022/10/05 16:59:17;;;;;;;;;;;;;;;8.67;100.00;99874.19;5003355;28;20019;-87
2022/10/05 17:01:56;;;;;;;;;;;;;;;8.53;100.00;99880.75;5002274;28;19989;-85
2022/10/05 17:04:27;;;;;;;;;;;;;;;8.43;100.00;99879.34;5002619;28;19918;-87
2022/10/05 17:07:11;;;;;;;;;;;;;;;8.51;100.00;99879.97;5000362;28;19917;-85
2022/10/05 17:09:39;;;;;;;;;;;;;;;8.48;100.00;99881.84;5003223;28;19917;-91
2022/10/05 17:12:04;;;;;;;;;;;;;;;8.58;100.00;99885.03;5001635;28;19979;-87
2022/10/05 17:14:42;;;;;;;;;;;;;;;8.59;100.00;99889.41;4993286;28;19914;-88
2022/10/05 17:17:28;;;;;;;;;;;;;;;8.58;100.00;99890.31;5004430;28;19971;-83
2022/10/05 17:20:11;;;;;;;;;;;;;;;8.49;100.00;99888.88;4996896;28;19929;-85
2022/10/05 17:22:49;;;;;;;;;;;;;;;8.41;100.00;99889.06;4980098;28;19944;-84
2022/10/05 17:25:23;;;;;;;;;;;;;;;8.58;100.00;99892.97;4984522;28;19918;-85
2022/10/05 17:27:48;;;;;;;;;;;;;;;8.49;100.00;99897.63;5002888;28;19918;-86
2022/10/05 17:30:25;;;;;;;;;;;;;;;8.34;100.00;99911.28;5004757;28;19924;-90
2022/10/05 17:32:55;;;;;;;;;;;;;;;8.49;100.00;99916.13;4999623;28;19984;-81
2022/10/05 17:35:39;;;;;;;;;;;;;;;8.44;100.00;99922.44;4980091;28;20000;-83
2022/10/05 17:38:13;;;;;;;;;;;;;;;8.50;100.00;99927.53;5001250;28;20575;-84
2022/10/05 17:40:39;;;;;;;;;;;;;;;8.52;100.00;99926.59;4981959;28;19947;-91
2022/10/05 17:43:14;;;;;;;;;;;;;;;8.51;100.00;99929.28;4981634;28;20016;-88
2022/10/05 17:45:42;;;;;;;;;;;;;;;9.87;100.00;99925.41;4999743;28;19925;-83
2022/10/05 17:48:08;;;;;;;;;;;;;;;8.95;100.00;99931.34;5001622;28;19917;-83
2022/10/05 17:56:26;;;;;;;;;;;;;;;8.64;100.00;99950.88;4998172;28;19969;-85
2022/10/05 17:58:56;;;;;;;;;;;;;;;8.58;100.00;99948.44;4983520;28;19921;-83
2022/10/05 18:01:29;;;;;;;;;;;;;;;8.63;100.00;99954.41;4977628;28;19922;-82
2022/10/05 18:04:12;;;;;;;;;;;;;;;8.63;100.00;99970.28;4994349;28;19933;-85
2022/10/05 18:06:42;;;;;;;;;;;;;;;8.57;100.00;99959.91;4995153;28;19928;-90
2022/10/05 18:09:20;;;;;;;;;;;;;;;8.55;100.00;99967.88;5001799;28;19929;-87
2022/10/05 18:12:05;;;;;;;;;;;;;;;8.63;100.00;99965.00;4988750;28;19929;-91
2022/10/05 18:14:50;;;;;;;;;;;;;;;8.49;100.00;99963.66;4985237;28;19921;-89
2022/10/05 18:17:32;;;;;;;;;;;;;;;8.54;100.00;99974.94;4986908;28;19926;-91
2022/10/05 18:20:14;;;;;;;;;;;;;;;8.62;100.00;99979.13;4986441;28;19925;-84
2022/10/05 18:22:39;;;;;;;;;;;;;;;8.59;100.00;99981.88;4986012;28;19917;-88
2022/10/05 18:25:09;;;;;;;;;;;;;;;8.58;100.00;99982.75;4986523;28;19948;-86
2022/10/05 18:27:37;;;;;;;;;;;;;;;8.50;100.00;99983.00;5000706;28;19922;-89
2022/10/05 18:30:09;;;;;;;;;;;;;;;8.48;100.00;99987.47;4989785;28;19918;-87
2022/10/05 18:32:37;;;;;;;;;;;;;;;9.55;100.00;99988.31;5002550;28;20028;-83
2022/10/05 18:35:14;;;;;;;;;;;;;;;8.81;100.00;100001.41;4988069;28;19980;-87
2022/10/05 18:37:57;;;;;;;;;;;;;;;8.62;100.00;99995.84;4985043;28;19925;-90
2022/10/05 18:40:24;;;;;;;;;;;;;;;8.51;100.00;99993.50;4986920;28;20000;-84
2022/10/05 18:42:50;;;;;;;;;;;;;;;8.51;100.00;99998.81;4992932;28;19922;-85
2022/10/05 18:45:40;;;;;;;;;;;;;;;8.46;100.00;99998.09;4994184;28;19921;-89
2022/10/05 18:48:08;;;;;;;;;;;;;;;8.49;100.00;100000.63;4979995;28;19922;-88
2022/10/05 18:50:34;;;;;;;;;;;;;;;8.52;100.00;100005.81;5003630;28;19926;-85
2022/10/05 18:53:18;;;;;;;;;;;;;;;8.44;100.00;100013.13;4990737;28;20331;-89
2022/10/05 18:55:46;;;;;;;;;;;;;;;8.42;100.00;100014.03;4993788;28;19921;-91
2022/10/05 18:58:30;;;;;;;;;;;;;;;8.41;100.00;100018.47;4985525;28;19925;-86
2022/10/05 19:01:10;;;;;;;;;;;;;;;8.47;100.00;100018.31;4988633;28;20292;-89
2022/10/05 19:03:56;;;;;;;;;;;;;;;8.47;100.00;100030.63;4982824;28;20031;-85
2022/10/05 19:06:40;;;;;;;;;;;;;;;8.52;100.00;100024.31;4996634;28;19925;-87
2022/10/05 19:09:24;;;;;;;;;;;;;;;8.44;100.00;100042.16;5002047;28;19922;-83
2022/10/05 19:11:56;;;;;;;;;;;;;;;8.40;100.00;100040.47;4977026;28;19933;-86
2022/10/05 19:14:47;;;;;;;;;;;;;;;8.44;100.00;100052.72;5002828;28;19925;-83
2022/10/05 19:17:27;;;;;;;;;;;;;;;8.52;100.00;100053.34;4980505;28;19930;-86
2022/10/05 19:20:04;;;;;;;;;;;;;;;8.48;100.00;100061.41;4988229;28;19924;-90
2022/10/05 19:22:45;;;;;;;;;;;;;;;8.53;100.00;100065.63;4994384;28;20372;-92
2022/10/05 19:25:12;;;;;;;;;;;;;;;8.52;100.00;100065.69;4988982;28;19921;-94
2022/10/05 19:27:47;;;;;;;;;;;;;;;8.39;100.00;100073.06;4995439;28;20262;-90
2022/10/05 19:30:20;;;;;;;;;;;;;;;8.40;100.00;100076.59;4997621;28;19945;-82
2022/10/05 19:32:57;;;;;;;;;;;;;;;8.46;100.00;100079.94;4986345;28;19929;-90
2022/10/05 19:35:32;;;;;;;;;;;;;;;8.42;100.00;100088.81;4981375;28;20279;-85
2022/10/05 19:37:57;;;;;;;;;;;;;;;8.50;100.00;100101.84;4999879;28;20492;-82
2022/10/05 19:40:25;;;;;;;;;;;;;;;8.42;100.00;100101.19;4986681;28;20036;-83
2022/10/05 19:43:03;;;;;;;;;;;;;;;8.43;100.00;100101.16;4982548;28;19929;-83
2022/10/05 19:45:31;;;;;;;;;;;;;;;8.30;100.00;100111.19;5000865;28;19937;-86
2022/10/05 19:47:56;;;;;;;;;;;;;;;8.38;100.00;100113.59;4984304;28;19922;-89
2022/10/05 19:50:29;;;;;;;;;;;;;;;8.39;100.00;100125.88;5003585;28;20008;-90
2022/10/05 19:53:02;;;;;;;;;;;;;;;8.36;100.00;100136.56;4983086;28;20373;-90
2022/10/05 19:55:38;;;;;;;;;;;;;;;8.48;100.00;100152.06;4998338;28;20388;-86
2022/10/05 19:58:15;;;;;;;;;;;;;;;8.41;100.00;100158.41;4986228;28;20278;-89